Time;durP1;ratioP1;P1;durP2;ratioP2;P2;SDS_P1;SDS_P2;PMS_P1;PMS_P2;Temp;Humidity;BMP_temperature;BMP_pressure;BME280_temperature;BME280_humidity;BME280_pressure;Samples;Min_cycle;Max_cycle;Signal;HPM_P1;HPM_P2
2023/03/11 00:00:30;;;;;;;5.90;2.65;;;;;;;21.19;44.88;99299.66;5054101;28;20049;-47
2023/03/11 00:03:00;;;;;;;4.15;2.40;;;;;;;21.18;44.93;99298.78;5053767;28;20048;-50
2023/03/11 00:05:31;;;;;;;5.25;2.50;;;;;;;21.18;44.74;99287.19;5053959;28;20049;-48
2023/03/11 00:07:59;;;;;;;4.35;2.35;;;;;;;21.17;44.64;99289.06;5054280;28;20051;-49
2023/03/11 00:10:33;;;;;;;3.88;2.30;;;;;;;21.17;44.67;99289.06;5054255;28;20049;-48
2023/03/11 00:13:02;;;;;;;4.15;2.38;;;;;;;21.17;44.46;99286.38;5054187;28;20037;-52
2023/03/11 00:15:30;;;;;;;4.03;2.03;;;;;;;21.17;44.46;99286.38;5053991;28;20049;-46
2023/03/11 00:17:58;;;;;;;5.30;1.90;;;;;;;21.16;44.40;99284.69;5054108;28;20049;-50
2023/03/11 00:20:45;;;;;;;4.18;1.95;;;;;;;21.16;44.39;99290.09;5054003;28;20049;-50
2023/03/11 00:23:14;;;;;;;4.70;2.10;;;;;;;21.16;44.00;99282.00;5053714;28;20060;-49
2023/03/11 00:25:44;;;;;;;2.78;1.50;;;;;;;21.16;44.34;99282.00;5053925;28;20068;-49
2023/03/11 00:28:14;;;;;;;4.80;1.90;;;;;;;21.16;44.58;99289.25;5052727;28;20049;-46
2023/03/11 00:30:43;;;;;;;4.88;2.25;;;;;;;21.15;44.63;99291.09;5052867;28;20049;-47
2023/03/11 00:33:15;;;;;;;5.95;1.88;;;;;;;21.15;44.58;99298.34;5053336;28;20045;-50
2023/03/11 00:35:43;;;;;;;5.47;2.85;;;;;;;21.15;44.56;99292.97;5052387;28;20060;-48
2023/03/11 00:38:15;;;;;;;4.75;2.58;;;;;;;21.14;44.73;99281.34;5053855;28;20060;-47
2023/03/11 00:40:45;;;;;;;4.65;2.05;;;;;;;21.15;44.76;99266.06;5053560;28;20429;-49
2023/03/11 00:43:16;;;;;;;6.22;2.03;;;;;;;21.13;44.67;99271.59;5053523;28;20037;-49
2023/03/11 00:45:43;;;;;;;5.47;2.20;;;;;;;21.14;44.67;99269.75;5052740;28;20403;-49
2023/03/11 00:48:12;;;;;;;3.47;1.52;;;;;;;21.14;44.60;99275.94;5053652;28;20044;-50
2023/03/11 00:50:40;;;;;;;7.10;2.03;;;;;;;21.13;44.74;99274.28;5053541;28;20045;-49
2023/03/11 00:53:09;;;;;;;5.28;1.83;;;;;;;21.13;44.79;99273.47;5052160;28;20049;-49
2023/03/11 00:55:36;;;;;;;3.67;1.88;;;;;;;21.12;44.83;99283.38;5053621;28;20472;-47
2023/03/11 00:58:07;;;;;;;5.35;2.47;;;;;;;21.13;44.72;99281.53;5052419;28;20055;-48
2023/03/11 01:00:39;;;;;;;3.70;1.90;;;;;;;21.13;44.74;99278.84;5052301;28;20053;-48
2023/03/11 01:03:07;;;;;;;4.03;1.92;;;;;;;21.13;44.58;99265.38;5052114;28;20045;-48
2023/03/11 01:05:34;;;;;;;4.57;2.17;;;;;;;21.12;44.52;99278.00;5051858;28;20045;-51
2023/03/11 01:08:03;;;;;;;3.78;1.95;;;;;;;21.13;44.58;99268.91;5052628;28;20053;-52
2023/03/11 01:10:31;;;;;;;4.70;1.73;;;;;;;21.12;44.40;99261.84;5052775;28;20056;-48
2023/03/11 01:12:59;;;;;;;3.63;1.58;;;;;;;21.12;44.37;99252.97;5052730;28;20049;-48
2023/03/11 01:15:33;;;;;;;3.08;1.52;;;;;;;21.13;44.48;99265.38;5053351;28;20049;-47
2023/03/11 01:18:02;;;;;;;3.97;1.80;;;;;;;21.12;44.25;99267.25;5052080;28;20049;-51
2023/03/11 01:20:32;;;;;;;3.95;1.90;;;;;;;21.13;44.40;99271.59;5052291;28;20049;-51
2023/03/11 01:22:59;;;;;;;3.47;1.55;;;;;;;21.13;44.56;99262.69;5053303;28;20045;-49
2023/03/11 01:25:28;;;;;;;4.43;2.00;;;;;;;21.12;44.62;99264.56;5052763;28;20048;-50
2023/03/11 01:27:57;;;;;;;5.25;1.90;;;;;;;21.12;44.52;99269.94;5053644;28;20069;-49
2023/03/11 01:30:27;;;;;;;3.42;1.77;;;;;;;21.12;44.55;99259.16;5053185;28;20495;-48
2023/03/11 01:32:56;;;;;;;4.68;1.88;;;;;;;21.13;44.62;99254.63;5053280;28;20529;-52
2023/03/11 01:35:26;;;;;;;4.18;1.92;;;;;;;21.12;44.73;99251.09;5052051;28;20073;-47
2023/03/11 01:37:54;;;;;;;4.07;1.60;;;;;;;21.12;44.59;99255.66;5053185;28;20494;-49
2023/03/11 01:40:27;;;;;;;4.13;1.85;;;;;;;21.12;44.70;99245.72;5053172;28;20052;-50
2023/03/11 01:42:57;;;;;;;4.55;1.85;;;;;;;21.10;44.66;99245.03;5053705;28;20049;-47
2023/03/11 01:45:30;;;;;;;3.78;1.50;;;;;;;21.10;44.71;99231.59;5055679;28;20060;-51
2023/03/11 01:47:58;;;;;;;3.33;1.63;;;;;;;21.11;44.67;99233.28;5055851;28;20052;-47
2023/03/11 01:50:33;;;;;;;4.28;1.63;;;;;;;21.12;44.69;99220.66;5055742;28;20057;-50
2023/03/11 01:53:01;;;;;;;3.55;1.75;;;;;;;21.11;44.64;99216.31;5055387;28;20049;-47
2023/03/11 01:55:30;;;;;;;3.22;1.50;;;;;;;21.11;44.64;99211.75;5055706;28;20059;-50
2023/03/11 01:58:01;;;;;;;4.20;1.63;;;;;;;21.11;44.51;99205.53;5056567;28;20045;-49
2023/03/11 02:00:28;;;;;;;3.78;1.42;;;;;;;21.09;44.50;99192.25;5056630;28;20045;-48
2023/03/11 02:02:59;;;;;;;3.38;1.40;;;;;;;21.09;44.67;99186.03;5055595;28;20053;-49
2023/03/11 02:05:27;;;;;;;3.70;1.55;;;;;;;21.10;44.72;99176.94;5055632;28;20056;-48
2023/03/11 02:07:54;;;;;;;3.13;1.50;;;;;;;21.10;44.60;99182.31;5055135;28;20499;-48
2023/03/11 02:10:26;;;;;;;5.13;1.83;;;;;;;21.09;44.67;99192.25;5055070;28;20549;-47
2023/03/11 02:12:54;;;;;;;3.40;1.65;;;;;;;21.10;44.71;99201.16;5054897;28;20053;-49
2023/03/11 02:15:23;;;;;;;4.47;1.65;;;;;;;21.10;44.53;99193.09;5056384;28;20041;-50
2023/03/11 02:17:51;;;;;;;3.15;1.52;;;;;;;21.08;44.64;99195.97;5056154;28;20391;-49
2023/03/11 02:20:37;;;;;;;5.35;1.50;;;;;;;21.09;44.68;99207.56;5056175;28;20045;-48
2023/03/11 02:23:13;;;;;;;3.80;1.55;;;;;;;21.09;44.58;99208.41;5054782;28;20057;-51
2023/03/11 02:25:59;;;;;;;3.75;1.40;;;;;;;21.09;44.42;99197.63;5054619;28;20044;-50
2023/03/11 02:28:30;;;;;;;3.60;1.45;;;;;;;21.09;44.46;99186.03;5054986;28;20053;-49
2023/03/11 02:30:57;;;;;;;2.95;1.40;;;;;;;21.06;44.59;99171.09;5055185;28;20060;-49
2023/03/11 02:33:29;;;;;;;2.72;1.35;;;;;;;21.07;44.47;99194.31;5056141;28;20399;-47
2023/03/11 02:35:57;;;;;;;3.80;1.45;;;;;;;21.07;44.56;99183.53;5056118;28;20053;-47
2023/03/11 02:38:25;;;;;;;5.22;1.40;;;;;;;21.07;44.39;99177.34;5054843;28;20053;-50
2023/03/11 02:41:01;;;;;;;3.17;1.13;;;;;;;21.07;44.43;99164.72;5054781;28;20056;-50
2023/03/11 02:43:45;;;;;;;4.95;1.55;;;;;;;21.08;44.55;99173.63;5054431;28;20064;-48
2023/03/11 02:46:17;;;;;;;3.75;1.48;;;;;;;21.08;44.49;99179.00;5054506;28;20060;-48
2023/03/11 02:48:47;;;;;;;2.58;1.35;;;;;;;21.07;44.44;99178.16;5054711;28;20053;-49
2023/03/11 02:51:15;;;;;;;2.38;1.23;;;;;;;21.09;44.59;99188.72;5054563;28;20060;-50
2023/03/11 02:53:47;;;;;;;2.80;1.30;;;;;;;21.08;44.35;99189.75;5053328;28;20052;-49
2023/03/11 02:56:15;;;;;;;3.42;1.50;;;;;;;21.07;44.45;99191.63;5054802;28;20049;-50
2023/03/11 02:58:42;;;;;;;2.78;1.38;;;;;;;21.08;44.37;99192.44;5054602;28;20052;-46
2023/03/11 03:01:10;;;;;;;4.45;1.58;;;;;;;21.07;44.52;99188.94;5054512;28;20052;-49
2023/03/11 03:03:39;;;;;;;3.38;1.60;;;;;;;21.07;44.49;99172.78;5054129;28;20060;-48
2023/03/11 03:06:06;;;;;;;3.25;1.60;;;;;;;21.07;44.35;99175.47;5055277;28;20049;-51
2023/03/11 03:08:34;;;;;;;3.35;1.38;;;;;;;21.08;44.48;99155.63;5053840;28;20041;-49
2023/03/11 03:11:02;;;;;;;3.10;1.48;;;;;;;21.07;44.46;99151.25;5055168;28;20075;-50
2023/03/11 03:13:31;;;;;;;3.70;1.50;;;;;;;21.08;44.50;99149.41;5055152;28;20131;-52
2023/03/11 03:15:59;;;;;;;3.35;1.50;;;;;;;21.06;44.51;99152.25;5055187;28;20049;-45
2023/03/11 03:18:26;;;;;;;4.43;1.33;;;;;;;21.07;44.40;99156.63;5054128;28;20403;-46
2023/03/11 03:20:54;;;;;;;3.75;1.48;;;;;;;21.07;44.30;99161.19;5055077;28;20051;-49
2023/03/11 03:23:22;;;;;;;4.68;1.42;;;;;;;21.07;44.44;99161.19;5053502;28;20053;-48
2023/03/11 03:25:50;;;;;;;2.40;1.25;;;;;;;21.07;44.44;99172.78;5053931;28;20049;-49
2023/03/11 03:28:18;;;;;;;3.85;1.30;;;;;;;21.06;44.56;99175.63;5055071;28;20040;-48
2023/03/11 03:30:45;;;;;;;2.28;1.10;;;;;;;21.06;44.46;99179.16;5053570;28;20049;-46
2023/03/11 03:33:13;;;;;;;4.95;1.50;;;;;;;21.06;44.40;99176.47;5053743;28;20049;-47
2023/03/11 03:35:43;;;;;;;2.92;1.23;;;;;;;21.07;44.49;99180.03;5053824;28;20081;-49
2023/03/11 03:38:34;;;;;;;2.70;1.03;;;;;;;21.06;44.56;99176.47;5054205;28;20064;-48
2023/03/11 03:41:01;;;;;;;2.78;1.13;;;;;;;21.07;44.45;99197.00;5053469;28;20511;-51
2023/03/11 03:43:29;;;;;;;2.00;0.80;;;;;;;21.06;44.54;99208.75;5053587;28;20041;-47
2023/03/11 03:45:59;;;;;;;3.38;1.42;;;;;;;21.06;44.49;99214.13;5053515;28;20049;-47
2023/03/11 03:48:31;;;;;;;3.65;1.38;;;;;;;21.05;44.51;99212.47;5053178;28;20067;-47
2023/03/11 03:51:03;;;;;;;4.43;1.30;;;;;;;21.05;44.47;99225.94;5053004;28;20064;-50
2023/03/11 03:53:33;;;;;;;2.92;1.20;;;;;;;21.05;44.54;99215.16;5052853;28;20407;-49
2023/03/11 03:56:07;;;;;;;2.22;0.98;;;;;;;21.05;44.58;99212.47;5052884;28;20049;-50
2023/03/11 03:58:35;;;;;;;2.50;1.20;;;;;;;21.06;44.58;99202.53;5052944;28;20058;-49
2023/03/11 04:01:04;;;;;;;2.50;1.02;;;;;;;21.05;44.83;99193.63;5053301;28;20056;-46
2023/03/11 04:03:34;;;;;;;3.60;1.17;;;;;;;21.05;44.87;99185.56;5052782;28;20049;-51
2023/03/11 04:06:14;;;;;;;2.92;1.20;;;;;;;21.06;44.70;99171.09;5054330;28;20066;-47
2023/03/11 04:08:41;;;;;;;2.70;1.10;;;;;;;21.06;44.87;99176.47;5054102;28;20471;-49
2023/03/11 04:11:10;;;;;;;1.98;0.98;;;;;;;21.05;44.86;99172.13;5052949;28;20049;-48
2023/03/11 04:13:38;;;;;;;2.85;1.00;;;;;;;21.05;44.75;99168.59;5052976;28;20064;-48
2023/03/11 04:16:14;;;;;;;3.00;1.27;;;;;;;21.05;44.75;99171.28;5054134;28;20373;-50
2023/03/11 04:18:41;;;;;;;;;;;;;;;21.06;44.79;99183.72;5052946;28;20483;-49
2023/03/11 04:21:09;;;;;;;3.88;1.48;;;;;;;21.05;44.59;99188.25;5053682;28;19929;-48
2023/03/11 04:23:36;;;;;;;2.53;1.23;;;;;;;21.06;44.67;99184.53;5053755;28;20387;-50
2023/03/11 04:26:05;;;;;;;2.70;0.82;;;;;;;21.04;44.52;99162.38;5052260;28;20045;-46
2023/03/11 04:28:34;;;;;;;4.70;1.27;;;;;;;21.06;44.58;99160.31;5052345;28;20056;-50
2023/03/11 04:31:02;;;;;;;1.90;0.90;;;;;;;21.05;44.51;99172.13;5052749;28;20053;-46
2023/03/11 04:33:31;;;;;;;3.90;1.15;;;;;;;21.06;44.39;99178.31;5052439;28;20052;-49
2023/03/11 04:36:04;;;;;;;2.08;0.85;;;;;;;21.05;44.35;99182.03;5053707;28;20033;-48
2023/03/11 04:38:33;;;;;;;3.33;1.42;;;;;;;21.05;44.46;99190.94;5052762;28;20049;-49
2023/03/11 04:41:05;;;;;;;3.25;1.30;;;;;;;21.05;44.34;99177.50;5053746;28;20045;-47
2023/03/11 04:43:34;;;;;;;3.58;1.15;;;;;;;21.04;44.50;99186.59;5052224;28;20045;-47
2023/03/11 04:46:06;;;;;;;4.38;1.08;;;;;;;21.05;44.65;99182.03;5051690;28;20071;-46
2023/03/11 04:48:33;;;;;;;3.60;1.10;;;;;;;21.04;44.61;99183.06;5053598;28;20068;-51
2023/03/11 04:51:01;;;;;;;3.13;1.00;;;;;;;21.04;44.33;99186.59;5052175;28;20059;-50
2023/03/11 04:53:28;;;;;;;4.43;1.15;;;;;;;21.04;44.47;99178.53;5052479;28;20106;-47
2023/03/11 04:55:56;;;;;;;1.95;0.82;;;;;;;21.04;44.44;99178.53;5052506;28;20415;-50
2023/03/11 04:58:24;;;;;;;2.88;0.90;;;;;;;21.03;44.35;99171.47;5052169;28;20045;-47
2023/03/11 05:00:51;;;;;;;2.30;0.82;;;;;;;21.04;44.35;99186.59;5053396;28;20168;-50
2023/03/11 05:03:20;;;;;;;2.58;1.02;;;;;;;21.04;44.38;99189.28;5052467;28;20053;-48
2023/03/11 05:05:47;;;;;;;2.60;0.88;;;;;;;21.04;44.39;99191.16;5052414;28;20075;-47
2023/03/11 05:08:16;;;;;;;4.10;1.08;;;;;;;21.04;44.57;99193.84;5052289;28;20060;-47
2023/03/11 05:10:44;;;;;;;2.47;0.98;;;;;;;21.05;44.24;99192.81;5052353;28;20057;-47
2023/03/11 05:13:11;;;;;;;4.38;0.80;;;;;;;21.04;44.33;99188.47;5052397;28;20048;-48
2023/03/11 05:15:41;;;;;;;3.55;1.50;;;;;;;21.03;44.27;99189.47;5051949;28;20045;-49
2023/03/11 05:18:08;;;;;;;2.60;0.82;;;;;;;21.04;44.36;99183.06;5054654;28;20052;-50
2023/03/11 05:20:38;;;;;;;2.28;0.88;;;;;;;21.03;44.34;99181.41;5056291;28;20057;-48
2023/03/11 05:23:06;;;;;;;2.45;0.80;;;;;;;21.03;44.39;99173.34;5055949;28;20071;-48
2023/03/11 05:25:35;;;;;;;1.70;1.00;;;;;;;21.03;44.29;99165.28;5055895;28;20487;-48
2023/03/11 05:28:03;;;;;;;2.20;0.90;;;;;;;21.03;44.41;99154.50;5055954;28;20044;-48
2023/03/11 05:30:33;;;;;;;1.52;0.65;;;;;;;21.03;44.48;99138.38;5056214;28;20048;-50
2023/03/11 05:33:01;;;;;;;1.88;0.68;;;;;;;21.02;44.49;99137.50;5057175;28;20049;-47
2023/03/11 05:35:28;;;;;;;2.80;1.10;;;;;;;21.03;44.41;99136.50;5057024;28;20360;-48
2023/03/11 05:37:56;;;;;;;2.00;0.85;;;;;;;21.02;44.43;99136.66;5056114;28;20056;-47
2023/03/11 05:40:27;;;;;;;4.10;1.00;;;;;;;21.03;44.52;99127.59;5055821;28;20045;-46
2023/03/11 05:42:54;;;;;;;4.03;1.05;;;;;;;21.01;44.39;99116.19;5055932;28;20052;-47
2023/03/11 05:45:22;;;;;;;1.77;0.68;;;;;;;21.02;44.27;99107.06;5055767;28;20056;-48
2023/03/11 05:47:51;;;;;;;2.97;0.88;;;;;;;21.01;44.43;99108.09;5055444;28;20060;-48
2023/03/11 05:50:19;;;;;;;2.47;0.98;;;;;;;21.01;44.39;99100.03;5055882;28;20395;-47
2023/03/11 05:52:47;;;;;;;1.98;0.70;;;;;;;21.01;44.45;99084.72;5055731;28;20383;-48
2023/03/11 05:55:16;;;;;;;2.53;0.85;;;;;;;21.01;44.30;99078.50;5055789;28;20045;-47
2023/03/11 05:57:45;;;;;;;2.42;0.70;;;;;;;21.01;44.23;99091.97;5055635;28;20380;-51
2023/03/11 06:00:13;;;;;;;2.25;0.80;;;;;;;21.01;44.19;99119.69;5055715;28;20049;-47
2023/03/11 06:02:41;;;;;;;1.80;0.63;;;;;;;21.01;44.04;99124.25;5055159;28;20052;-49
2023/03/11 06:05:12;;;;;;;2.05;0.77;;;;;;;21.00;44.21;99147.63;5056619;28;20057;-48
2023/03/11 06:07:42;;;;;;;2.97;1.33;;;;;;;21.00;43.93;99169.16;5055449;28;20049;-49
2023/03/11 06:10:10;;;;;;;2.08;0.73;;;;;;;21.01;44.12;99189.66;5056058;28;20048;-50
2023/03/11 06:12:38;;;;;;;1.88;0.70;;;;;;;21.01;43.99;99202.25;5055251;28;20080;-50
2023/03/11 06:15:33;;;;;;;1.30;0.57;;;;;;;21.01;43.89;99203.09;5055370;28;20411;-51
2023/03/11 06:18:00;;;;;;;2.15;0.80;;;;;;;21.01;44.07;99213.84;5054821;28;20471;-47
2023/03/11 06:20:28;;;;;;;2.00;0.80;;;;;;;20.99;43.90;99222.13;5056279;28;20476;-46
2023/03/11 06:22:55;;;;;;;2.05;0.60;;;;;;;21.02;43.97;99223.59;5054889;28;20056;-50
2023/03/11 06:25:24;;;;;;;2.25;0.80;;;;;;;21.03;44.02;99219.06;5055033;28;20057;-51
2023/03/11 06:27:53;;;;;;;1.77;0.50;;;;;;;21.01;43.82;99211.16;5054707;28;20075;-51
2023/03/11 06:30:23;;;;;;;2.55;0.85;;;;;;;21.01;43.83;99211.16;5056326;28;20053;-49
2023/03/11 06:32:57;;;;;;;3.22;0.90;;;;;;;21.01;43.94;99210.34;5055026;28;20056;-50
2023/03/11 06:35:25;;;;;;;2.28;0.85;;;;;;;21.02;43.87;99196.69;5056274;28;20049;-50
2023/03/11 06:37:52;;;;;;;2.22;0.95;;;;;;;21.03;44.08;99176.03;5054474;28;20057;-48
2023/03/11 06:40:19;;;;;;;3.05;1.10;;;;;;;21.02;44.10;99163.56;5055791;28;20055;-51
2023/03/11 06:42:47;;;;;;;1.63;0.70;;;;;;;21.03;43.96;99141.06;5055974;28;20494;-53
2023/03/11 06:45:15;;;;;;;2.42;0.88;;;;;;;21.03;43.88;99122.22;5054329;28;20061;-52
2023/03/11 06:47:46;;;;;;;3.97;0.90;;;;;;;21.03;43.85;99124.91;5054752;28;20057;-49
2023/03/11 06:50:13;;;;;;;2.67;0.70;;;;;;;21.03;44.27;99136.50;5054761;28;20053;-47
2023/03/11 06:52:41;;;;;;;3.38;0.90;;;;;;;21.03;43.99;99128.44;5054646;28;20052;-50
2023/03/11 06:55:08;;;;;;;2.00;0.70;;;;;;;21.03;44.06;99154.50;5055659;28;20045;-50
2023/03/11 06:57:36;;;;;;;1.98;0.73;;;;;;;21.02;44.06;99166.25;5054600;28;20057;-48
2023/03/11 07:00:11;;;;;;;1.55;0.70;;;;;;;21.02;44.02;99177.03;5054258;28;20060;-46
2023/03/11 07:02:41;;;;;;;2.13;0.77;;;;;;;21.02;44.03;99183.25;5054048;28;20140;-46
2023/03/11 07:05:11;;;;;;;3.13;0.80;;;;;;;21.02;43.99;99212.00;5054131;28;20064;-50
2023/03/11 07:07:39;;;;;;;2.35;0.60;;;;;;;21.03;44.04;99219.91;5053775;28;20112;-49
2023/03/11 07:10:06;;;;;;;2.20;0.80;;;;;;;21.01;43.94;99221.94;5053910;28;20057;-50
2023/03/11 07:12:35;;;;;;;2.67;0.77;;;;;;;21.01;44.04;99213.84;5054213;28;20044;-50
2023/03/11 07:15:02;;;;;;;1.85;0.50;;;;;;;21.02;44.14;99198.53;5053669;28;20057;-49
2023/03/11 07:17:31;;;;;;;3.10;0.95;;;;;;;21.02;44.20;99195.84;5053789;28;20045;-48
2023/03/11 07:19:58;;;;;;;3.25;0.90;;;;;;;21.03;44.12;99197.56;5054107;28;20068;-48
2023/03/11 07:22:25;;;;;;;1.60;0.65;;;;;;;21.03;44.14;99186.78;5055174;28;20049;-48
2023/03/11 07:24:53;;;;;;;1.92;0.80;;;;;;;21.02;44.32;99174.34;5054912;28;20414;-47
2023/03/11 07:27:21;;;;;;;2.35;0.82;;;;;;;21.03;44.38;99176.88;5054953;28;20041;-48
2023/03/11 07:29:48;;;;;;;2.47;0.70;;;;;;;21.04;44.22;99188.47;5054871;28;20053;-48
2023/03/11 07:32:15;;;;;;;2.78;0.90;;;;;;;21.05;44.27;99206.25;5054831;28;20055;-48
2023/03/11 07:34:44;;;;;;;2.95;1.17;;;;;;;21.05;44.27;99207.09;5054824;28;20056;-48
2023/03/11 07:37:11;;;;;;;2.92;1.00;;;;;;;21.05;44.33;99215.16;5054824;28;20041;-49
2023/03/11 07:39:38;;;;;;;3.78;1.13;;;;;;;21.06;41.62;99229.44;5054227;28;20403;-49
2023/03/11 07:42:06;;;;;;;3.10;1.15;;;;;;;21.05;40.71;99228.63;5054597;28;20391;-49
2023/03/11 07:44:35;;;;;;;4.90;1.75;;;;;;;21.05;40.52;99233.16;5054243;28;20065;-49
2023/03/11 07:47:03;;;;;;;5.40;1.13;;;;;;;21.05;40.15;99236.69;5054455;28;20407;-50
2023/03/11 07:49:31;;;;;;;6.90;1.60;;;;;;;21.04;39.72;99240.41;5054518;28;20045;-49
2023/03/11 07:51:58;;;;;;;5.82;1.17;;;;;;;21.02;39.55;99236.22;5054408;28;20380;-48
2023/03/11 07:54:26;;;;;;;6.25;1.35;;;;;;;21.00;39.87;99236.41;5054461;28;20049;-48
2023/03/11 07:56:53;;;;;;;3.63;1.25;;;;;;;20.99;40.39;99238.25;5054300;28;20348;-51
2023/03/11 07:59:20;;;;;;;3.95;1.13;;;;;;;21.00;40.83;99249.84;5054239;28;20045;-49
2023/03/11 08:01:49;;;;;;;4.05;1.65;;;;;;;21.00;40.33;99241.78;5054099;28;20052;-50
2023/03/11 08:04:16;;;;;;;7.00;1.33;;;;;;;21.00;40.04;99252.56;5054223;28;20048;-49
2023/03/11 08:06:46;;;;;;;3.83;1.23;;;;;;;21.01;39.49;99245.31;5054091;28;20430;-49
2023/03/11 08:09:14;;;;;;;3.80;1.33;;;;;;;21.02;41.72;99249.66;5053940;28;20049;-48
2023/03/11 08:11:41;;;;;;;7.35;1.45;;;;;;;21.00;40.46;99241.78;5054088;28;20542;-51
2023/03/11 08:14:09;;;;;;;2.15;0.93;;;;;;;21.01;39.72;99245.31;5053908;28;20056;-47
2023/03/11 08:16:38;;;;;;;5.28;1.17;;;;;;;20.98;40.58;99241.97;5053630;28;20045;-48
2023/03/11 08:19:05;;;;;;;3.65;1.10;;;;;;;20.99;41.42;99240.97;5053946;28;20060;-48
2023/03/11 08:21:32;;;;;;;4.30;1.50;;;;;;;21.02;41.55;99249.66;5054155;28;20048;-51
2023/03/11 08:24:01;;;;;;;3.55;1.60;;;;;;;21.03;41.84;99257.56;5053875;28;20053;-52
2023/03/11 08:26:30;;;;;;;3.35;1.20;;;;;;;21.05;41.84;99265.47;5053321;28;20045;-49
2023/03/11 08:28:58;;;;;;;2.28;0.95;;;;;;;21.06;41.73;99261.75;5052873;28;20049;-47
2023/03/11 08:31:29;;;;;;;4.85;1.25;;;;;;;21.08;41.34;99259.72;5053201;28;20053;-49
2023/03/11 08:34:02;;;;;;;4.30;1.38;;;;;;;21.09;41.51;99264.06;5053710;28;20061;-46
2023/03/11 08:36:30;;;;;;;7.63;1.10;;;;;;;21.10;41.39;99263.88;5053388;28;20399;-46
2023/03/11 08:38:58;;;;;;;4.18;1.52;;;;;;;21.11;41.45;99259.38;5053101;28;20056;-48
2023/03/11 08:41:26;;;;;;;4.43;1.23;;;;;;;21.13;41.76;99258.16;5053111;28;20112;-47
2023/03/11 08:43:54;;;;;;;3.75;1.20;;;;;;;21.13;41.79;99260.00;5052963;28;20052;-49
2023/03/11 08:46:32;;;;;;;4.20;1.30;;;;;;;21.15;41.78;99260.69;5052931;28;20048;-47
2023/03/11 08:49:01;;;;;;;4.53;1.38;;;;;;;21.16;41.81;99273.09;5053036;28;20056;-49
2023/03/11 08:51:31;;;;;;;3.75;1.40;;;;;;;21.17;41.74;99280.16;5052305;28;20398;-52
2023/03/11 08:53:59;;;;;;;2.78;1.02;;;;;;;21.17;41.58;99275.59;5052998;28;20048;-51
2023/03/11 08:56:26;;;;;;;2.78;1.48;;;;;;;21.18;41.51;99271.06;5052829;28;20049;-47
2023/03/11 08:58:54;;;;;;;3.35;0.90;;;;;;;21.18;41.39;99279.13;5052924;28;20041;-48
2023/03/11 09:01:22;;;;;;;3.33;0.75;;;;;;;21.19;41.42;99276.28;5052887;28;20041;-51
2023/03/11 09:03:50;;;;;;;4.18;1.20;;;;;;;21.19;41.63;99281.66;5052878;28;20051;-48
2023/03/11 09:06:17;;;;;;;3.85;0.93;;;;;;;21.20;41.67;99277.09;5051601;28;20067;-48
2023/03/11 09:08:45;;;;;;;4.45;1.00;;;;;;;21.20;41.78;99269.88;5052736;28;20056;-51
2023/03/11 09:11:14;;;;;;;3.63;1.20;;;;;;;21.21;41.91;99263.44;5052698;28;20055;-52
2023/03/11 09:13:42;;;;;;;4.13;1.00;;;;;;;21.21;41.99;99271.53;5052806;28;20487;-47
2023/03/11 09:16:16;;;;;;;3.95;1.10;;;;;;;21.21;41.89;99255.38;5052661;28;20552;-48
2023/03/11 09:18:43;;;;;;;2.47;0.80;;;;;;;21.22;42.02;99258.91;5052768;28;20426;-48
2023/03/11 09:21:11;;;;;;;3.17;1.08;;;;;;;21.21;42.07;99255.38;5052640;28;20052;-49
2023/03/11 09:23:42;;;;;;;3.00;1.10;;;;;;;21.22;42.06;99242.75;5052536;28;20063;-49
2023/03/11 09:26:11;;;;;;;3.67;1.13;;;;;;;21.23;41.95;99255.22;5052547;28;20052;-47
2023/03/11 09:28:40;;;;;;;4.38;1.20;;;;;;;21.24;41.89;99248.81;5052516;28;20044;-47
2023/03/11 09:31:08;;;;;;;3.58;0.85;;;;;;;21.22;41.87;99248.97;5052575;28;20041;-48
2023/03/11 09:33:41;;;;;;;2.90;0.80;;;;;;;21.23;41.77;99253.34;5052470;28;20402;-49
2023/03/11 09:36:13;;;;;;;2.88;1.10;;;;;;;21.23;41.85;99247.97;5052440;28;20045;-49
2023/03/11 09:38:42;;;;;;;2.88;1.10;;;;;;;21.23;41.55;99239.06;5052573;28;20052;-51
2023/03/11 09:41:36;;;;;;;2.25;0.88;;;;;;;21.23;41.79;99249.84;5052366;28;20048;-48
2023/03/11 09:44:40;;;;;;;3.05;0.68;;;;;;;21.24;41.85;99232.66;5052616;28;20041;-49
2023/03/11 09:47:22;;;;;;;2.78;0.80;;;;;;;21.22;41.22;99232.00;5052415;28;20068;-49
2023/03/11 09:49:59;;;;;;;3.00;1.10;;;;;;;21.23;41.04;99236.38;5051129;28;20063;-53
2023/03/11 09:52:36;;;;;;;4.35;0.73;;;;;;;21.23;40.96;99236.38;5052376;28;20282;-48
2023/03/11 09:55:16;;;;;;;2.20;0.90;;;;;;;21.22;40.95;99227.44;5052353;28;20056;-49
2023/03/11 09:57:43;;;;;;;3.13;0.68;;;;;;;21.23;41.10;99237.22;5052352;28;20056;-51
2023/03/11 10:00:11;;;;;;;2.05;0.68;;;;;;;21.24;41.06;99235.34;5052258;28;20045;-51
2023/03/11 10:02:40;;;;;;;2.85;0.95;;;;;;;21.23;41.04;99221.06;5052302;28;20049;-51
2023/03/11 10:05:28;;;;;;;4.10;0.90;;;;;;;21.24;40.77;99224.59;5055960;28;20076;-50
2023/03/11 10:08:02;;;;;;;2.00;0.75;;;;;;;21.24;40.88;99213.81;5055942;28;20045;-48
2023/03/11 10:10:39;;;;;;;1.77;0.68;;;;;;;21.24;41.25;99211.97;5055828;28;20045;-49
2023/03/11 10:13:28;;;;;;;2.33;0.98;;;;;;;21.25;41.39;99215.47;5055830;28;20053;-47
2023/03/11 10:16:25;;;;;;;2.15;0.80;;;;;;;21.24;41.12;99220.03;5055982;28;20403;-49
2023/03/11 10:19:31;;;;;;;4.10;0.80;;;;;;;21.24;40.92;99222.72;5055788;28;20048;-50
2023/03/11 10:22:29;;;;;;;1.70;0.70;;;;;;;21.24;41.18;99228.09;5055649;28;20049;-48
2023/03/11 10:25:09;;;;;;;3.15;0.68;;;;;;;21.26;41.21;99229.78;5055142;28;20061;-48
2023/03/11 10:27:47;;;;;;;2.70;0.63;;;;;;;21.25;40.73;99231.63;5055795;28;20049;-49
2023/03/11 10:30:17;;;;;;;2.35;0.75;;;;;;;21.26;40.85;99232.47;5055609;28;20407;-49
2023/03/11 10:32:52;;;;;;;4.93;1.05;;;;;;;21.26;40.63;99238.69;5055470;28;20052;-48
2023/03/11 10:35:28;;;;;;;4.20;0.80;;;;;;;21.27;40.74;99236.81;5055424;28;20403;-48
2023/03/11 10:38:06;;;;;;;2.83;0.85;;;;;;;21.27;40.79;99247.59;5055238;28;20052;-47
2023/03/11 10:40:38;;;;;;;2.42;0.60;;;;;;;21.26;40.82;99249.44;5055323;28;20055;-49
2023/03/11 10:43:13;;;;;;;5.05;0.90;;;;;;;21.25;40.88;99250.47;5055334;28;20037;-48
2023/03/11 10:45:43;;;;;;;1.90;0.57;;;;;;;21.24;40.83;99244.25;5055283;28;20053;-51
2023/03/11 10:48:13;;;;;;;2.20;0.88;;;;;;;21.26;40.75;99248.63;5053978;28;20052;-48
2023/03/11 10:51:05;;;;;;;2.05;0.60;;;;;;;21.24;40.80;99246.94;5055417;28;20055;-49
2023/03/11 10:53:47;;;;;;;1.70;0.60;;;;;;;21.24;40.73;99244.25;5051128;28;20064;-49
2023/03/11 10:56:30;;;;;;;2.00;0.60;;;;;;;21.24;40.50;99249.63;5055059;28;20048;-48
2023/03/11 10:58:58;;;;;;;1.08;0.52;;;;;;;21.24;41.02;99255.03;5054995;28;20041;-48
2023/03/11 11:01:27;;;;;;;1.90;0.70;;;;;;;21.24;41.14;99246.94;5054905;28;20056;-52
2023/03/11 11:03:59;;;;;;;2.83;0.63;;;;;;;21.26;40.61;99248.63;5054925;28;20434;-52
2023/03/11 11:06:32;;;;;;;1.30;0.60;;;;;;;21.24;40.53;99249.63;5054908;28;20063;-48
2023/03/11 11:09:12;;;;;;;;;;;;;;;21.24;40.87;99255.03;5055043;28;20056;-52
2023/03/11 11:11:39;;;;;;;1.15;0.40;;;;;;;21.25;40.83;99255.84;5054795;28;19921;-48
2023/03/11 11:14:08;;;;;;;1.35;0.47;;;;;;;21.24;40.30;99257.72;5054558;28;20060;-47
2023/03/11 11:16:35;;;;;;;1.40;0.38;;;;;;;21.25;39.89;99269.31;5054191;28;20040;-48
2023/03/11 11:19:14;;;;;;;1.33;0.40;;;;;;;21.24;40.25;99260.41;5054550;28;20059;-51
2023/03/11 11:21:47;;;;;;;2.17;0.70;;;;;;;21.24;40.43;99262.25;5054459;28;20056;-49
2023/03/11 11:24:25;;;;;;;1.70;0.52;;;;;;;21.24;40.71;99264.97;5054369;28;20522;-48
2023/03/11 11:27:26;;;;;;;1.50;0.50;;;;;;;21.23;40.33;99258.75;5054455;28;20049;-47
2023/03/11 11:30:15;;;;;;;1.42;0.43;;;;;;;21.24;40.04;99254.19;5053078;28;20054;-49
2023/03/11 11:32:42;;;;;;;2.08;0.90;;;;;;;21.23;40.13;99256.06;5054305;28;20089;-48
2023/03/11 11:35:13;;;;;;;2.05;0.57;;;;;;;21.24;40.20;99259.56;5054318;28;20051;-48
2023/03/11 11:37:53;;;;;;;2.30;0.70;;;;;;;21.23;40.08;99247.16;5054017;28;20060;-47
2023/03/11 11:40:23;;;;;;;1.23;0.40;;;;;;;21.24;40.15;99243.44;5054182;28;20056;-51
2023/03/11 11:42:59;;;;;;;1.33;0.55;;;;;;;21.22;40.18;99232.81;5054095;28;20056;-48
2023/03/11 11:45:37;;;;;;;0.85;0.30;;;;;;;21.24;39.50;99236.19;5054128;28;20049;-49
2023/03/11 11:48:13;;;;;;;1.08;0.30;;;;;;;21.23;39.49;99231.81;5054162;28;20051;-49
2023/03/11 11:50:45;;;;;;;4.43;1.00;;;;;;;21.23;39.79;99225.63;5053886;28;20045;-51